Hennepin, Illinois
Current Conditions -  °F | °C
As of 11:55 AM on Thursday 30 Oct 2014 (Local Time) from KVYS Reporting Station
Overcast Overcast  
Wind Chill: 44°   Ceiling: 10000
Heat Index: 47°   Visibility: 10mi
Dew Point: 37°   Wind: 7mph
Humidity: 66%   Direction: 240°WSW
Pressure: 30.13"   Gusts: NA
Location:  41.25°N, 89.34°W
Report Text: KVYS 301655Z AUTO 24006KT 10SM OVC100 09/03 A3013 RMK AO2 T00850025
Loading
Personal Weather Stations






























Interactive Weather Map
Tropical Storm Tracking
New forecast layout! Learn more

10-Day Weather Forecast

Advertisements
Track Severe Weather on mobile